FlightSource - Aviation Photo Database

World Wide Airport Lookup


Search by ICAO
Or
Search by City

FlightSource.ca - Aviation Photo Database - Labasa Airport Information
Airport Identification
Name: Labasa Airport
ICAO: NFNL
IATA: LBS
Airport Location
City:
Region: N
Country: Fiji
Continent: OC
Latitude: -16.4667
Longitude: 179.34
Airport Information
Type: Medium Airport
Elevation: 44 Feet ASL
Flight Status: NFNL
More Info: NFNL
Airport Weather    
Metar: NFNL 122100Z 09007KT 40KM FEW020 SCT090 30/23 Q1010
TAF:


Advertisement